sensor_id;sensor_type;location;lat;lon;timestamp;temperature;humidity
42365;DHT22;28498;54.400;18.566;2024-03-08T00:00:13;-3.10;99.90
42365;DHT22;28498;54.400;18.566;2024-03-08T00:02:43;-3.10;99.90
42365;DHT22;28498;54.400;18.566;2024-03-08T00:05:11;-3.20;99.90
42365;DHT22;28498;54.400;18.566;2024-03-08T00:07:39;-3.20;99.90
42365;DHT22;28498;54.400;18.566;2024-03-08T00:10:08;-3.20;99.90
42365;DHT22;28498;54.400;18.566;2024-03-08T00:12:42;-3.20;99.90
42365;DHT22;28498;54.400;18.566;2024-03-08T00:15:10;-3.30;99.90
42365;DHT22;28498;54.400;18.566;2024-03-08T00:17:37;-2.80;99.90
42365;DHT22;28498;54.400;18.566;2024-03-08T00:20:05;-2.30;99.90
42365;DHT22;28498;54.400;18.566;2024-03-08T00:22:35;-3.40;99.90
42365;DHT22;28498;54.400;18.566;2024-03-08T00:25:03;-3.50;99.90
42365;DHT22;28498;54.400;18.566;2024-03-08T00:27:30;-3.40;99.90
42365;DHT22;28498;54.400;18.566;2024-03-08T00:29:58;-2.40;99.90
42365;DHT22;28498;54.400;18.566;2024-03-08T00:32:25;-3.40;99.90
42365;DHT22;28498;54.400;18.566;2024-03-08T00:34:52;-3.40;99.90
42365;DHT22;28498;54.400;18.566;2024-03-08T00:37:18;-3.00;99.90
42365;DHT22;28498;54.400;18.566;2024-03-08T00:39:46;-3.50;99.90
42365;DHT22;28498;54.400;18.566;2024-03-08T00:42:13;-3.50;99.90
42365;DHT22;28498;54.400;18.566;2024-03-08T00:44:40;-3.50;99.90
42365;DHT22;28498;54.400;18.566;2024-03-08T00:47:07;-3.50;99.90
42365;DHT22;28498;54.400;18.566;2024-03-08T00:49:34;-3.60;99.90
42365;DHT22;28498;54.400;18.566;2024-03-08T00:52:04;-2.50;99.90
42365;DHT22;28498;54.400;18.566;2024-03-08T00:54:32;-3.60;99.90
42365;DHT22;28498;54.400;18.566;2024-03-08T00:56:59;-3.60;99.90
42365;DHT22;28498;54.400;18.566;2024-03-08T00:59:30;-3.00;99.90
42365;DHT22;28498;54.400;18.566;2024-03-08T01:02:02;-3.70;99.90
42365;DHT22;28498;54.400;18.566;2024-03-08T01:04:29;-3.60;99.90
42365;DHT22;28498;54.400;18.566;2024-03-08T01:06:57;-3.60;99.90
42365;DHT22;28498;54.400;18.566;2024-03-08T01:09:25;-3.60;99.90
42365;DHT22;28498;54.400;18.566;2024-03-08T01:11:56;-3.60;99.90
42365;DHT22;28498;54.400;18.566;2024-03-08T01:14:24;-3.60;99.90
42365;DHT22;28498;54.400;18.566;2024-03-08T01:16:56;-3.70;99.90
42365;DHT22;28498;54.400;18.566;2024-03-08T01:19:23;-2.70;99.90
42365;DHT22;28498;54.400;18.566;2024-03-08T01:21:51;-3.80;99.90
42365;DHT22;28498;54.400;18.566;2024-03-08T01:24:19;-2.90;99.90
42365;DHT22;28498;54.400;18.566;2024-03-08T01:26:46;-3.90;99.90
42365;DHT22;28498;54.400;18.566;2024-03-08T01:29:14;-3.90;99.90
42365;DHT22;28498;54.400;18.566;2024-03-08T01:31:41;-3.90;99.90
42365;DHT22;28498;54.400;18.566;2024-03-08T01:34:08;-3.90;99.90
42365;DHT22;28498;54.400;18.566;2024-03-08T01:36:35;-3.90;99.90
42365;DHT22;28498;54.400;18.566;2024-03-08T01:39:04;-3.90;99.90
42365;DHT22;28498;54.400;18.566;2024-03-08T01:41:35;-3.90;99.90
42365;DHT22;28498;54.400;18.566;2024-03-08T01:44:03;-2.90;99.90
42365;DHT22;28498;54.400;18.566;2024-03-08T01:46:31;-4.00;99.90
42365;DHT22;28498;54.400;18.566;2024-03-08T01:48:58;-3.60;99.90
42365;DHT22;28498;54.400;18.566;2024-03-08T01:51:29;-3.90;99.90
42365;DHT22;28498;54.400;18.566;2024-03-08T01:53:58;-4.00;99.90
42365;DHT22;28498;54.400;18.566;2024-03-08T01:56:27;-4.00;99.90
42365;DHT22;28498;54.400;18.566;2024-03-08T01:58:54;-3.90;99.90
42365;DHT22;28498;54.400;18.566;2024-03-08T02:01:21;-3.80;99.90
42365;DHT22;28498;54.400;18.566;2024-03-08T02:03:49;-2.60;99.90
42365;DHT22;28498;54.400;18.566;2024-03-08T02:06:16;-3.90;99.90
42365;DHT22;28498;54.400;18.566;2024-03-08T02:08:45;-3.30;99.90
42365;DHT22;28498;54.400;18.566;2024-03-08T02:11:13;-3.50;99.90
42365;DHT22;28498;54.400;18.566;2024-03-08T02:13:40;-4.10;99.90
42365;DHT22;28498;54.400;18.566;2024-03-08T02:16:08;-2.90;99.90
42365;DHT22;28498;54.400;18.566;2024-03-08T02:18:35;-3.10;99.90
42365;DHT22;28498;54.400;18.566;2024-03-08T02:21:05;-4.20;99.90
42365;DHT22;28498;54.400;18.566;2024-03-08T02:23:33;-3.10;99.90
42365;DHT22;28498;54.400;18.566;2024-03-08T02:26:01;-4.20;99.90
42365;DHT22;28498;54.400;18.566;2024-03-08T02:28:28;-4.20;99.90
42365;DHT22;28498;54.400;18.566;2024-03-08T02:30:56;-3.40;99.90
42365;DHT22;28498;54.400;18.566;2024-03-08T02:33:26;-4.20;99.90
42365;DHT22;28498;54.400;18.566;2024-03-08T02:35:53;-3.30;99.90
42365;DHT22;28498;54.400;18.566;2024-03-08T02:38:22;-4.20;99.90
42365;DHT22;28498;54.400;18.566;2024-03-08T02:40:53;-4.10;99.90
42365;DHT22;28498;54.400;18.566;2024-03-08T02:43:22;-4.10;99.90
42365;DHT22;28498;54.400;18.566;2024-03-08T02:45:49;-3.10;99.90
42365;DHT22;28498;54.400;18.566;2024-03-08T02:48:16;-4.20;99.90
42365;DHT22;28498;54.400;18.566;2024-03-08T02:50:44;-4.10;99.90
42365;DHT22;28498;54.400;18.566;2024-03-08T02:53:13;-4.10;99.90
42365;DHT22;28498;54.400;18.566;2024-03-08T02:55:41;-4.10;99.90
42365;DHT22;28498;54.400;18.566;2024-03-08T02:58:09;-4.10;99.90
42365;DHT22;28498;54.400;18.566;2024-03-08T03:00:40;-4.20;99.90
42365;DHT22;28498;54.400;18.566;2024-03-08T03:03:08;-4.20;99.90
42365;DHT22;28498;54.400;18.566;2024-03-08T03:05:35;-4.10;99.90
42365;DHT22;28498;54.400;18.566;2024-03-08T03:08:02;-4.00;99.90
42365;DHT22;28498;54.400;18.566;2024-03-08T03:10:37;-4.10;99.90
42365;DHT22;28498;54.400;18.566;2024-03-08T03:13:04;-4.10;99.90
42365;DHT22;28498;54.400;18.566;2024-03-08T03:15:32;-4.10;99.90
42365;DHT22;28498;54.400;18.566;2024-03-08T03:18:00;-4.10;99.90
42365;DHT22;28498;54.400;18.566;2024-03-08T03:20:28;-4.20;99.90
42365;DHT22;28498;54.400;18.566;2024-03-08T03:23:08;-4.10;99.90
42365;DHT22;28498;54.400;18.566;2024-03-08T03:25:35;-4.10;99.90
42365;DHT22;28498;54.400;18.566;2024-03-08T03:28:03;-4.00;99.90
42365;DHT22;28498;54.400;18.566;2024-03-08T03:30:31;-4.00;99.90
42365;DHT22;28498;54.400;18.566;2024-03-08T03:33:02;-3.90;99.90
42365;DHT22;28498;54.400;18.566;2024-03-08T03:35:35;-3.90;99.90
42365;DHT22;28498;54.400;18.566;2024-03-08T03:38:04;-4.00;99.90
42365;DHT22;28498;54.400;18.566;2024-03-08T03:40:38;-4.00;99.90
42365;DHT22;28498;54.400;18.566;2024-03-08T03:43:05;-3.40;99.90
42365;DHT22;28498;54.400;18.566;2024-03-08T03:45:33;-3.90;99.90
42365;DHT22;28498;54.400;18.566;2024-03-08T03:48:05;-3.80;99.90
42365;DHT22;28498;54.400;18.566;2024-03-08T03:50:37;-3.70;99.90
42365;DHT22;28498;54.400;18.566;2024-03-08T03:53:06;-3.60;99.90
42365;DHT22;28498;54.400;18.566;2024-03-08T03:55:36;-3.50;99.90
42365;DHT22;28498;54.400;18.566;2024-03-08T03:58:07;-3.40;99.90
42365;DHT22;28498;54.400;18.566;2024-03-08T04:00:37;-2.20;99.90
42365;DHT22;28498;54.400;18.566;2024-03-08T04:03:05;-3.10;99.90
42365;DHT22;28498;54.400;18.566;2024-03-08T04:05:33;-2.30;99.90
42365;DHT22;28498;54.400;18.566;2024-03-08T04:08:00;-2.80;99.90
42365;DHT22;28498;54.400;18.566;2024-03-08T04:10:27;-2.70;99.90
42365;DHT22;28498;54.400;18.566;2024-03-08T04:12:54;-1.60;99.90
42365;DHT22;28498;54.400;18.566;2024-03-08T04:15:21;-2.30;99.90
42365;DHT22;28498;54.400;18.566;2024-03-08T04:17:48;-2.50;99.90
42365;DHT22;28498;54.400;18.566;2024-03-08T04:20:15;-2.30;99.90
42365;DHT22;28498;54.400;18.566;2024-03-08T04:22:44;-2.40;99.90
42365;DHT22;28498;54.400;18.566;2024-03-08T04:25:16;-2.40;99.90
42365;DHT22;28498;54.400;18.566;2024-03-08T04:27:44;-2.40;99.90
42365;DHT22;28498;54.400;18.566;2024-03-08T04:30:11;-2.30;99.90
42365;DHT22;28498;54.400;18.566;2024-03-08T04:32:39;-2.30;99.90
42365;DHT22;28498;54.400;18.566;2024-03-08T04:35:08;-2.20;99.90
42365;DHT22;28498;54.400;18.566;2024-03-08T04:37:35;-2.00;99.90
42365;DHT22;28498;54.400;18.566;2024-03-08T04:40:03;-2.00;99.90
42365;DHT22;28498;54.400;18.566;2024-03-08T04:42:30;-2.10;99.90
42365;DHT22;28498;54.400;18.566;2024-03-08T04:44:59;-2.00;99.90
42365;DHT22;28498;54.400;18.566;2024-03-08T04:47:27;-1.90;99.90
42365;DHT22;28498;54.400;18.566;2024-03-08T04:49:54;-1.90;99.90
42365;DHT22;28498;54.400;18.566;2024-03-08T04:52:22;-1.80;99.90
42365;DHT22;28498;54.400;18.566;2024-03-08T04:54:49;-1.70;99.90
42365;DHT22;28498;54.400;18.566;2024-03-08T04:57:16;-1.70;99.90
42365;DHT22;28498;54.400;18.566;2024-03-08T04:59:46;-1.70;99.90
42365;DHT22;28498;54.400;18.566;2024-03-08T05:02:13;-1.80;99.90
42365;DHT22;28498;54.400;18.566;2024-03-08T05:04:40;-1.80;99.90
42365;DHT22;28498;54.400;18.566;2024-03-08T05:07:07;-1.80;99.90
42365;DHT22;28498;54.400;18.566;2024-03-08T05:09:34;-1.80;99.90
42365;DHT22;28498;54.400;18.566;2024-03-08T05:12:03;-1.70;99.90
42365;DHT22;28498;54.400;18.566;2024-03-08T05:14:30;-1.80;99.90
42365;DHT22;28498;54.400;18.566;2024-03-08T05:16:57;-1.80;99.90
42365;DHT22;28498;54.400;18.566;2024-03-08T05:19:24;-1.80;99.90
42365;DHT22;28498;54.400;18.566;2024-03-08T05:21:51;-1.90;99.90
42365;DHT22;28498;54.400;18.566;2024-03-08T05:24:19;-1.00;99.90
42365;DHT22;28498;54.400;18.566;2024-03-08T05:26:46;-1.80;99.90
42365;DHT22;28498;54.400;18.566;2024-03-08T05:29:14;-1.80;99.90
42365;DHT22;28498;54.400;18.566;2024-03-08T05:31:50;-1.80;99.90
42365;DHT22;28498;54.400;18.566;2024-03-08T05:34:17;-1.80;99.90
42365;DHT22;28498;54.400;18.566;2024-03-08T05:36:46;-1.80;99.90
42365;DHT22;28498;54.400;18.566;2024-03-08T05:39:13;-1.80;99.90
42365;DHT22;28498;54.400;18.566;2024-03-08T05:41:41;-1.70;99.90
42365;DHT22;28498;54.400;18.566;2024-03-08T05:44:09;-1.70;99.90
42365;DHT22;28498;54.400;18.566;2024-03-08T05:46:37;-1.70;99.90
42365;DHT22;28498;54.400;18.566;2024-03-08T05:49:04;-1.60;99.90
42365;DHT22;28498;54.400;18.566;2024-03-08T05:51:33;-1.50;99.90
42365;DHT22;28498;54.400;18.566;2024-03-08T05:54:04;-1.50;99.90
42365;DHT22;28498;54.400;18.566;2024-03-08T05:56:38;-1.50;99.90
42365;DHT22;28498;54.400;18.566;2024-03-08T05:59:05;-1.50;99.90
42365;DHT22;28498;54.400;18.566;2024-03-08T06:01:32;-1.40;99.90
42365;DHT22;28498;54.400;18.566;2024-03-08T06:04:03;-1.00;99.90
42365;DHT22;28498;54.400;18.566;2024-03-08T06:06:31;-1.40;99.90
42365;DHT22;28498;54.400;18.566;2024-03-08T06:08:58;-1.40;99.90
42365;DHT22;28498;54.400;18.566;2024-03-08T06:11:26;-1.40;99.90
42365;DHT22;28498;54.400;18.566;2024-03-08T06:13:57;-1.30;99.90
42365;DHT22;28498;54.400;18.566;2024-03-08T06:16:27;-1.20;99.90
42365;DHT22;28498;54.400;18.566;2024-03-08T06:18:57;-1.10;99.90
42365;DHT22;28498;54.400;18.566;2024-03-08T06:21:25;-1.00;99.90
42365;DHT22;28498;54.400;18.566;2024-03-08T06:23:55;-1.00;99.90
42365;DHT22;28498;54.400;18.566;2024-03-08T06:26:22;-1.00;99.90
42365;DHT22;28498;54.400;18.566;2024-03-08T06:28:49;-0.80;99.90
42365;DHT22;28498;54.400;18.566;2024-03-08T06:31:17;-0.10;99.90
42365;DHT22;28498;54.400;18.566;2024-03-08T06:33:44;-0.80;99.90
42365;DHT22;28498;54.400;18.566;2024-03-08T06:36:11;-0.70;99.90
42365;DHT22;28498;54.400;18.566;2024-03-08T06:38:39;-0.70;99.90
42365;DHT22;28498;54.400;18.566;2024-03-08T06:41:09;-0.60;99.90
42365;DHT22;28498;54.400;18.566;2024-03-08T06:43:46;-0.30;99.90
42365;DHT22;28498;54.400;18.566;2024-03-08T06:46:15;-0.30;99.90
42365;DHT22;28498;54.400;18.566;2024-03-08T06:48:42;-0.20;99.90
42365;DHT22;28498;54.400;18.566;2024-03-08T06:51:09;-0.20;99.90
42365;DHT22;28498;54.400;18.566;2024-03-08T06:53:38;0.10;99.90
42365;DHT22;28498;54.400;18.566;2024-03-08T06:56:06;0.20;99.90
42365;DHT22;28498;54.400;18.566;2024-03-08T06:58:35;0.20;99.90
42365;DHT22;28498;54.400;18.566;2024-03-08T07:01:02;0.30;99.90
42365;DHT22;28498;54.400;18.566;2024-03-08T07:03:31;0.30;99.90
42365;DHT22;28498;54.400;18.566;2024-03-08T07:05:59;0.30;99.90
42365;DHT22;28498;54.400;18.566;2024-03-08T07:08:30;0.30;99.90
42365;DHT22;28498;54.400;18.566;2024-03-08T07:10:57;0.50;99.90
42365;DHT22;28498;54.400;18.566;2024-03-08T07:13:26;0.20;99.90
42365;DHT22;28498;54.400;18.566;2024-03-08T07:15:55;0.10;99.90
42365;DHT22;28498;54.400;18.566;2024-03-08T07:18:22;0.30;99.90
42365;DHT22;28498;54.400;18.566;2024-03-08T07:20:50;0.20;99.90
42365;DHT22;28498;54.400;18.566;2024-03-08T07:23:17;0.20;99.90
42365;DHT22;28498;54.400;18.566;2024-03-08T07:26:03;0.30;99.90
42365;DHT22;28498;54.400;18.566;2024-03-08T07:28:30;0.30;99.90
42365;DHT22;28498;54.400;18.566;2024-03-08T07:31:00;0.40;99.90
42365;DHT22;28498;54.400;18.566;2024-03-08T07:33:50;0.40;99.90
42365;DHT22;28498;54.400;18.566;2024-03-08T07:36:17;0.50;99.90
42365;DHT22;28498;54.400;18.566;2024-03-08T07:38:45;0.50;99.90
42365;DHT22;28498;54.400;18.566;2024-03-08T07:41:15;0.60;99.90
42365;DHT22;28498;54.400;18.566;2024-03-08T07:43:43;0.60;99.90
42365;DHT22;28498;54.400;18.566;2024-03-08T07:46:10;0.70;99.90
42365;DHT22;28498;54.400;18.566;2024-03-08T07:48:37;0.80;99.90
42365;DHT22;28498;54.400;18.566;2024-03-08T07:51:05;0.70;99.90
42365;DHT22;28498;54.400;18.566;2024-03-08T07:53:32;0.80;99.90
42365;DHT22;28498;54.400;18.566;2024-03-08T07:55:59;0.90;99.90
42365;DHT22;28498;54.400;18.566;2024-03-08T08:02:14;1.40;99.90
42365;DHT22;28498;54.400;18.566;2024-03-08T08:04:41;1.10;99.90
42365;DHT22;28498;54.400;18.566;2024-03-08T08:07:08;1.20;99.90
42365;DHT22;28498;54.400;18.566;2024-03-08T08:09:35;1.30;99.90
42365;DHT22;28498;54.400;18.566;2024-03-08T08:12:02;1.40;99.90
42365;DHT22;28498;54.400;18.566;2024-03-08T08:14:30;1.40;99.90
42365;DHT22;28498;54.400;18.566;2024-03-08T08:16:57;1.50;99.90
42365;DHT22;28498;54.400;18.566;2024-03-08T08:19:27;1.60;99.90
42365;DHT22;28498;54.400;18.566;2024-03-08T08:21:54;1.70;99.90
42365;DHT22;28498;54.400;18.566;2024-03-08T08:24:22;1.80;99.90
42365;DHT22;28498;54.400;18.566;2024-03-08T08:30:30;2.80;99.90
42365;DHT22;28498;54.400;18.566;2024-03-08T08:33:00;2.00;99.90
42365;DHT22;28498;54.400;18.566;2024-03-08T08:35:27;2.10;99.90
42365;DHT22;28498;54.400;18.566;2024-03-08T08:41:36;2.80;99.90
42365;DHT22;28498;54.400;18.566;2024-03-08T08:44:03;2.30;99.90
42365;DHT22;28498;54.400;18.566;2024-03-08T08:46:33;2.50;99.90
42365;DHT22;28498;54.400;18.566;2024-03-08T08:49:07;2.80;99.90
42365;DHT22;28498;54.400;18.566;2024-03-08T08:51:37;2.90;99.90
42365;DHT22;28498;54.400;18.566;2024-03-08T08:54:05;2.90;99.90
42365;DHT22;28498;54.400;18.566;2024-03-08T08:56:39;2.90;99.90
42365;DHT22;28498;54.400;18.566;2024-03-08T08:59:06;3.10;99.90
42365;DHT22;28498;54.400;18.566;2024-03-08T09:01:34;3.10;99.90
42365;DHT22;28498;54.400;18.566;2024-03-08T09:04:01;3.20;99.90
42365;DHT22;28498;54.400;18.566;2024-03-08T09:06:28;3.30;99.90
42365;DHT22;28498;54.400;18.566;2024-03-08T09:08:56;3.30;99.90
42365;DHT22;28498;54.400;18.566;2024-03-08T09:11:24;3.30;99.90
42365;DHT22;28498;54.400;18.566;2024-03-08T09:13:54;3.40;99.90
42365;DHT22;28498;54.400;18.566;2024-03-08T09:16:21;3.40;99.90
42365;DHT22;28498;54.400;18.566;2024-03-08T09:18:48;3.30;99.90
42365;DHT22;28498;54.400;18.566;2024-03-08T09:21:15;3.30;99.90
42365;DHT22;28498;54.400;18.566;2024-03-08T09:23:43;3.20;99.90
42365;DHT22;28498;54.400;18.566;2024-03-08T09:26:11;3.20;99.90
42365;DHT22;28498;54.400;18.566;2024-03-08T09:28:51;3.30;99.90
42365;DHT22;28498;54.400;18.566;2024-03-08T09:31:18;3.30;99.90
42365;DHT22;28498;54.400;18.566;2024-03-08T09:33:45;3.40;99.90
42365;DHT22;28498;54.400;18.566;2024-03-08T09:36:13;3.40;99.90
42365;DHT22;28498;54.400;18.566;2024-03-08T09:38:40;3.50;99.90
42365;DHT22;28498;54.400;18.566;2024-03-08T09:41:10;3.50;99.90
42365;DHT22;28498;54.400;18.566;2024-03-08T09:43:37;3.50;99.90
42365;DHT22;28498;54.400;18.566;2024-03-08T09:46:04;3.60;99.90
42365;DHT22;28498;54.400;18.566;2024-03-08T09:48:33;3.60;99.90
42365;DHT22;28498;54.400;18.566;2024-03-08T09:51:03;3.70;99.90
42365;DHT22;28498;54.400;18.566;2024-03-08T09:53:30;3.80;99.90
42365;DHT22;28498;54.400;18.566;2024-03-08T09:55:58;3.90;99.90
42365;DHT22;28498;54.400;18.566;2024-03-08T09:58:26;4.00;99.90
42365;DHT22;28498;54.400;18.566;2024-03-08T10:01:13;3.90;99.90
42365;DHT22;28498;54.400;18.566;2024-03-08T10:03:40;3.80;99.90
42365;DHT22;28498;54.400;18.566;2024-03-08T10:06:07;3.80;99.90
42365;DHT22;28498;54.400;18.566;2024-03-08T10:08:36;3.60;99.90
42365;DHT22;28498;54.400;18.566;2024-03-08T10:11:03;3.70;99.90
42365;DHT22;28498;54.400;18.566;2024-03-08T10:13:31;3.60;99.90
42365;DHT22;28498;54.400;18.566;2024-03-08T10:16:00;3.70;99.90
42365;DHT22;28498;54.400;18.566;2024-03-08T10:18:27;3.80;99.90
42365;DHT22;28498;54.400;18.566;2024-03-08T10:21:06;3.70;99.90
42365;DHT22;28498;54.400;18.566;2024-03-08T10:23:34;3.70;99.90
42365;DHT22;28498;54.400;18.566;2024-03-08T10:26:14;3.70;99.90
42365;DHT22;28498;54.400;18.566;2024-03-08T10:28:44;3.70;99.90
42365;DHT22;28498;54.400;18.566;2024-03-08T10:31:11;3.70;99.90
42365;DHT22;28498;54.400;18.566;2024-03-08T10:33:41;3.70;99.90
42365;DHT22;28498;54.400;18.566;2024-03-08T10:36:09;3.80;99.90
42365;DHT22;28498;54.400;18.566;2024-03-08T10:38:40;3.70;99.90
42365;DHT22;28498;54.400;18.566;2024-03-08T10:41:09;3.70;99.90
42365;DHT22;28498;54.400;18.566;2024-03-08T10:46:36;3.70;99.90
42365;DHT22;28498;54.400;18.566;2024-03-08T10:49:15;3.80;99.90
42365;DHT22;28498;54.400;18.566;2024-03-08T10:51:45;3.90;99.90
42365;DHT22;28498;54.400;18.566;2024-03-08T10:54:14;3.80;99.90
42365;DHT22;28498;54.400;18.566;2024-03-08T10:56:42;3.70;99.90
42365;DHT22;28498;54.400;18.566;2024-03-08T10:59:10;3.80;99.90
42365;DHT22;28498;54.400;18.566;2024-03-08T11:01:37;3.70;99.90
42365;DHT22;28498;54.400;18.566;2024-03-08T11:04:07;3.60;99.90
42365;DHT22;28498;54.400;18.566;2024-03-08T11:09:36;3.60;99.90
42365;DHT22;28498;54.400;18.566;2024-03-08T11:15:03;3.50;99.90
42365;DHT22;28498;54.400;18.566;2024-03-08T11:20:12;3.50;99.90
42365;DHT22;28498;54.400;18.566;2024-03-08T11:25:40;3.60;99.90
42365;DHT22;28498;54.400;18.566;2024-03-08T11:33:30;3.50;99.90
42365;DHT22;28498;54.400;18.566;2024-03-08T11:36:13;3.50;99.90
42365;DHT22;28498;54.400;18.566;2024-03-08T11:38:49;3.50;99.90
42365;DHT22;28498;54.400;18.566;2024-03-08T11:41:19;3.50;99.90
42365;DHT22;28498;54.400;18.566;2024-03-08T11:43:48;3.40;99.90
42365;DHT22;28498;54.400;18.566;2024-03-08T11:46:17;3.30;99.90
42365;DHT22;28498;54.400;18.566;2024-03-08T11:48:47;3.20;99.90
42365;DHT22;28498;54.400;18.566;2024-03-08T11:51:15;3.30;99.90
42365;DHT22;28498;54.400;18.566;2024-03-08T11:53:45;3.30;99.90
42365;DHT22;28498;54.400;18.566;2024-03-08T11:56:14;3.30;99.90
42365;DHT22;28498;54.400;18.566;2024-03-08T11:58:53;3.40;99.90
42365;DHT22;28498;54.400;18.566;2024-03-08T12:01:20;3.30;99.90
42365;DHT22;28498;54.400;18.566;2024-03-08T12:03:55;3.30;99.90
42365;DHT22;28498;54.400;18.566;2024-03-08T12:06:27;3.40;99.90
42365;DHT22;28498;54.400;18.566;2024-03-08T12:08:54;3.50;99.90
42365;DHT22;28498;54.400;18.566;2024-03-08T12:11:21;3.30;99.90
42365;DHT22;28498;54.400;18.566;2024-03-08T12:13:51;3.30;99.90
42365;DHT22;28498;54.400;18.566;2024-03-08T12:16:19;3.40;99.90
42365;DHT22;28498;54.400;18.566;2024-03-08T12:18:48;3.50;99.90
42365;DHT22;28498;54.400;18.566;2024-03-08T12:21:15;3.50;99.90
42365;DHT22;28498;54.400;18.566;2024-03-08T12:23:46;3.60;99.90
42365;DHT22;28498;54.400;18.566;2024-03-08T12:26:25;3.60;99.90
42365;DHT22;28498;54.400;18.566;2024-03-08T12:28:53;3.70;99.90
42365;DHT22;28498;54.400;18.566;2024-03-08T12:31:21;3.60;99.90
42365;DHT22;28498;54.400;18.566;2024-03-08T12:33:52;3.70;99.90
42365;DHT22;28498;54.400;18.566;2024-03-08T12:36:23;3.70;99.90
42365;DHT22;28498;54.400;18.566;2024-03-08T12:38:51;3.80;99.90
42365;DHT22;28498;54.400;18.566;2024-03-08T12:41:19;4.00;99.90
42365;DHT22;28498;54.400;18.566;2024-03-08T12:43:47;3.90;99.90
42365;DHT22;28498;54.400;18.566;2024-03-08T12:46:18;3.70;99.90
42365;DHT22;28498;54.400;18.566;2024-03-08T12:49:03;3.60;99.90
42365;DHT22;28498;54.400;18.566;2024-03-08T12:51:31;3.60;99.90
42365;DHT22;28498;54.400;18.566;2024-03-08T12:54:00;3.60;99.90
42365;DHT22;28498;54.400;18.566;2024-03-08T12:56:32;3.60;99.90
42365;DHT22;28498;54.400;18.566;2024-03-08T12:59:01;3.60;99.90
42365;DHT22;28498;54.400;18.566;2024-03-08T13:01:28;3.60;99.90
42365;DHT22;28498;54.400;18.566;2024-03-08T13:03:55;3.60;99.90
42365;DHT22;28498;54.400;18.566;2024-03-08T13:06:22;3.60;99.90
42365;DHT22;28498;54.400;18.566;2024-03-08T13:08:51;3.50;99.90
42365;DHT22;28498;54.400;18.566;2024-03-08T13:11:22;3.40;99.90
42365;DHT22;28498;54.400;18.566;2024-03-08T13:13:53;3.40;99.90
42365;DHT22;28498;54.400;18.566;2024-03-08T13:16:20;3.40;99.90
42365;DHT22;28498;54.400;18.566;2024-03-08T13:18:47;3.50;99.90
42365;DHT22;28498;54.400;18.566;2024-03-08T13:21:20;3.40;99.90
42365;DHT22;28498;54.400;18.566;2024-03-08T13:23:50;3.40;99.90
42365;DHT22;28498;54.400;18.566;2024-03-08T13:26:20;3.40;99.90
42365;DHT22;28498;54.400;18.566;2024-03-08T13:28:48;3.50;99.90
42365;DHT22;28498;54.400;18.566;2024-03-08T13:31:15;3.40;99.90
42365;DHT22;28498;54.400;18.566;2024-03-08T13:33:42;3.50;99.90
42365;DHT22;28498;54.400;18.566;2024-03-08T13:36:14;3.40;99.90
42365;DHT22;28498;54.400;18.566;2024-03-08T13:38:42;3.40;99.90
42365;DHT22;28498;54.400;18.566;2024-03-08T13:41:14;3.50;99.90
42365;DHT22;28498;54.400;18.566;2024-03-08T13:43:41;3.50;99.90
42365;DHT22;28498;54.400;18.566;2024-03-08T13:46:09;3.40;99.90
42365;DHT22;28498;54.400;18.566;2024-03-08T13:48:39;3.40;99.90
42365;DHT22;28498;54.400;18.566;2024-03-08T13:51:06;3.30;99.90
42365;DHT22;28498;54.400;18.566;2024-03-08T13:53:33;3.10;99.90
42365;DHT22;28498;54.400;18.566;2024-03-08T13:56:04;3.10;99.90
42365;DHT22;28498;54.400;18.566;2024-03-08T13:58:32;3.10;99.90
42365;DHT22;28498;54.400;18.566;2024-03-08T14:00:59;3.10;99.90
42365;DHT22;28498;54.400;18.566;2024-03-08T14:03:27;3.10;99.90
42365;DHT22;28498;54.400;18.566;2024-03-08T14:05:54;3.10;99.90
42365;DHT22;28498;54.400;18.566;2024-03-08T14:08:22;3.20;99.90
42365;DHT22;28498;54.400;18.566;2024-03-08T14:10:51;3.20;99.90
42365;DHT22;28498;54.400;18.566;2024-03-08T14:13:20;3.20;99.90
42365;DHT22;28498;54.400;18.566;2024-03-08T14:15:48;3.50;99.90
42365;DHT22;28498;54.400;18.566;2024-03-08T14:18:15;3.30;99.90
42365;DHT22;28498;54.400;18.566;2024-03-08T14:20:42;3.30;99.90
42365;DHT22;28498;54.400;18.566;2024-03-08T14:23:09;3.20;99.90
42365;DHT22;28498;54.400;18.566;2024-03-08T14:25:37;3.20;99.90
42365;DHT22;28498;54.400;18.566;2024-03-08T14:28:04;3.20;99.90
42365;DHT22;28498;54.400;18.566;2024-03-08T14:30:34;3.20;99.90
42365;DHT22;28498;54.400;18.566;2024-03-08T14:33:02;3.30;99.90
42365;DHT22;28498;54.400;18.566;2024-03-08T14:35:30;3.30;99.90
42365;DHT22;28498;54.400;18.566;2024-03-08T14:37:57;3.30;99.90
42365;DHT22;28498;54.400;18.566;2024-03-08T14:40:25;3.50;99.90
42365;DHT22;28498;54.400;18.566;2024-03-08T14:42:53;3.60;99.90
42365;DHT22;28498;54.400;18.566;2024-03-08T14:45:20;3.60;99.90
42365;DHT22;28498;54.400;18.566;2024-03-08T14:47:48;3.60;99.90
42365;DHT22;28498;54.400;18.566;2024-03-08T14:50:25;3.60;99.90
42365;DHT22;28498;54.400;18.566;2024-03-08T14:52:52;3.50;99.90
42365;DHT22;28498;54.400;18.566;2024-03-08T14:55:20;3.50;99.90
42365;DHT22;28498;54.400;18.566;2024-03-08T14:57:52;3.40;99.90
42365;DHT22;28498;54.400;18.566;2024-03-08T15:00:20;3.20;99.90
42365;DHT22;28498;54.400;18.566;2024-03-08T15:02:54;3.10;99.90
42365;DHT22;28498;54.400;18.566;2024-03-08T15:05:21;3.20;99.90
42365;DHT22;28498;54.400;18.566;2024-03-08T15:07:54;3.30;99.90
42365;DHT22;28498;54.400;18.566;2024-03-08T15:10:22;3.30;99.90
42365;DHT22;28498;54.400;18.566;2024-03-08T15:12:53;3.20;99.90
42365;DHT22;28498;54.400;18.566;2024-03-08T15:15:23;3.30;99.90
42365;DHT22;28498;54.400;18.566;2024-03-08T15:17:52;3.40;99.90
42365;DHT22;28498;54.400;18.566;2024-03-08T15:20:21;3.30;99.90
42365;DHT22;28498;54.400;18.566;2024-03-08T15:22:56;3.20;99.90
42365;DHT22;28498;54.400;18.566;2024-03-08T15:25:26;3.10;99.90
42365;DHT22;28498;54.400;18.566;2024-03-08T15:27:53;3.20;99.90
42365;DHT22;28498;54.400;18.566;2024-03-08T15:30:24;3.00;99.90
42365;DHT22;28498;54.400;18.566;2024-03-08T15:32:58;3.00;99.90
42365;DHT22;28498;54.400;18.566;2024-03-08T15:35:27;2.80;99.90
42365;DHT22;28498;54.400;18.566;2024-03-08T15:37:54;2.60;99.90
42365;DHT22;28498;54.400;18.566;2024-03-08T15:40:25;2.50;99.90
42365;DHT22;28498;54.400;18.566;2024-03-08T15:42:55;2.40;99.90
42365;DHT22;28498;54.400;18.566;2024-03-08T15:45:23;2.30;99.90
42365;DHT22;28498;54.400;18.566;2024-03-08T15:47:50;2.10;99.90
42365;DHT22;28498;54.400;18.566;2024-03-08T15:50:18;2.10;99.90
42365;DHT22;28498;54.400;18.566;2024-03-08T15:52:47;2.00;99.90
42365;DHT22;28498;54.400;18.566;2024-03-08T15:55:16;1.90;99.90
42365;DHT22;28498;54.400;18.566;2024-03-08T15:57:54;1.80;99.90
42365;DHT22;28498;54.400;18.566;2024-03-08T16:00:22;1.80;99.90
42365;DHT22;28498;54.400;18.566;2024-03-08T16:03:13;1.60;99.90
42365;DHT22;28498;54.400;18.566;2024-03-08T16:05:42;2.00;99.90